sensor_id;sensor_type;location;lat;lon;timestamp;P1;durP1;ratioP1;P2;durP2;ratioP2
73585;SDS011;61865;50.232;18.614;2023-04-24T00:00:13;47.78;;;27.25;;
73585;SDS011;61865;50.232;18.614;2023-04-24T00:02:37;42.75;;;27.50;;
73585;SDS011;61865;50.232;18.614;2023-04-24T00:04:59;44.05;;;26.27;;
73585;SDS011;61865;50.232;18.614;2023-04-24T00:07:22;45.10;;;27.67;;
73585;SDS011;61865;50.232;18.614;2023-04-24T00:09:46;45.58;;;26.73;;
73585;SDS011;61865;50.232;18.614;2023-04-24T00:12:08;46.20;;;26.55;;
73585;SDS011;61865;50.232;18.614;2023-04-24T00:14:30;43.80;;;26.70;;
73585;SDS011;61865;50.232;18.614;2023-04-24T00:16:52;46.10;;;27.25;;
73585;SDS011;61865;50.232;18.614;2023-04-24T00:19:13;49.72;;;25.63;;
73585;SDS011;61865;50.232;18.614;2023-04-24T00:21:35;42.60;;;26.20;;
73585;SDS011;61865;50.232;18.614;2023-04-24T00:23:57;44.80;;;26.63;;
73585;SDS011;61865;50.232;18.614;2023-04-24T00:26:21;43.05;;;25.77;;
73585;SDS011;61865;50.232;18.614;2023-04-24T00:28:43;46.22;;;24.15;;
73585;SDS011;61865;50.232;18.614;2023-04-24T00:31:04;45.00;;;25.02;;
73585;SDS011;61865;50.232;18.614;2023-04-24T00:33:27;46.20;;;28.02;;
73585;SDS011;61865;50.232;18.614;2023-04-24T00:35:49;44.42;;;28.08;;
73585;SDS011;61865;50.232;18.614;2023-04-24T00:38:10;49.90;;;29.58;;
73585;SDS011;61865;50.232;18.614;2023-04-24T00:40:32;51.10;;;28.67;;
73585;SDS011;61865;50.232;18.614;2023-04-24T00:42:56;47.03;;;27.83;;
73585;SDS011;61865;50.232;18.614;2023-04-24T00:45:18;43.70;;;27.05;;
73585;SDS011;61865;50.232;18.614;2023-04-24T00:47:40;47.65;;;27.63;;
73585;SDS011;61865;50.232;18.614;2023-04-24T00:50:03;40.47;;;26.98;;
73585;SDS011;61865;50.232;18.614;2023-04-24T00:52:26;35.10;;;23.65;;
73585;SDS011;61865;50.232;18.614;2023-04-24T00:54:48;41.33;;;24.65;;
73585;SDS011;61865;50.232;18.614;2023-04-24T00:57:11;39.50;;;23.95;;
73585;SDS011;61865;50.232;18.614;2023-04-24T00:59:36;41.50;;;23.20;;
73585;SDS011;61865;50.232;18.614;2023-04-24T01:02:01;38.78;;;22.77;;
73585;SDS011;61865;50.232;18.614;2023-04-24T01:04:23;39.72;;;23.70;;
73585;SDS011;61865;50.232;18.614;2023-04-24T01:06:46;34.50;;;20.52;;
73585;SDS011;61865;50.232;18.614;2023-04-24T01:09:08;38.47;;;18.90;;
73585;SDS011;61865;50.232;18.614;2023-04-24T01:11:31;28.02;;;16.45;;
73585;SDS011;61865;50.232;18.614;2023-04-24T01:13:53;29.30;;;17.00;;
73585;SDS011;61865;50.232;18.614;2023-04-24T01:16:17;26.83;;;16.60;;
73585;SDS011;61865;50.232;18.614;2023-04-24T01:18:40;30.23;;;16.70;;
73585;SDS011;61865;50.232;18.614;2023-04-24T01:21:02;29.67;;;17.80;;
73585;SDS011;61865;50.232;18.614;2023-04-24T01:23:26;26.40;;;15.93;;
73585;SDS011;61865;50.232;18.614;2023-04-24T01:25:49;29.63;;;18.15;;
73585;SDS011;61865;50.232;18.614;2023-04-24T01:28:11;31.25;;;16.58;;
73585;SDS011;61865;50.232;18.614;2023-04-24T01:30:34;28.67;;;17.15;;
73585;SDS011;61865;50.232;18.614;2023-04-24T01:32:56;26.92;;;16.42;;
73585;SDS011;61865;50.232;18.614;2023-04-24T01:35:19;29.05;;;16.45;;
73585;SDS011;61865;50.232;18.614;2023-04-24T01:37:41;24.65;;;16.20;;
73585;SDS011;61865;50.232;18.614;2023-04-24T01:40:05;36.03;;;21.50;;
73585;SDS011;61865;50.232;18.614;2023-04-24T01:42:28;36.72;;;23.15;;
73585;SDS011;61865;50.232;18.614;2023-04-24T01:44:50;34.05;;;22.52;;
73585;SDS011;61865;50.232;18.614;2023-04-24T01:47:12;31.27;;;20.00;;
73585;SDS011;61865;50.232;18.614;2023-04-24T01:49:35;33.25;;;18.05;;
73585;SDS011;61865;50.232;18.614;2023-04-24T01:51:58;37.20;;;21.70;;
73585;SDS011;61865;50.232;18.614;2023-04-24T01:54:20;35.80;;;24.40;;
73585;SDS011;61865;50.232;18.614;2023-04-24T01:56:43;43.72;;;25.98;;
73585;SDS011;61865;50.232;18.614;2023-04-24T01:59:06;40.03;;;22.52;;
73585;SDS011;61865;50.232;18.614;2023-04-24T02:01:32;35.50;;;22.42;;
73585;SDS011;61865;50.232;18.614;2023-04-24T02:03:55;30.58;;;18.67;;
73585;SDS011;61865;50.232;18.614;2023-04-24T02:06:17;32.03;;;19.40;;
73585;SDS011;61865;50.232;18.614;2023-04-24T02:08:38;26.83;;;15.40;;
73585;SDS011;61865;50.232;18.614;2023-04-24T02:11:00;23.15;;;14.55;;
73585;SDS011;61865;50.232;18.614;2023-04-24T02:13:24;28.25;;;17.23;;
73585;SDS011;61865;50.232;18.614;2023-04-24T02:15:45;33.08;;;19.73;;
73585;SDS011;61865;50.232;18.614;2023-04-24T02:18:07;40.35;;;23.08;;
73585;SDS011;61865;50.232;18.614;2023-04-24T02:20:31;41.03;;;25.48;;
73585;SDS011;61865;50.232;18.614;2023-04-24T02:22:55;46.67;;;26.77;;
73585;SDS011;61865;50.232;18.614;2023-04-24T02:25:17;36.45;;;24.27;;
73585;SDS011;61865;50.232;18.614;2023-04-24T02:27:39;39.28;;;24.27;;
73585;SDS011;61865;50.232;18.614;2023-04-24T02:30:03;40.85;;;26.25;;
73585;SDS011;61865;50.232;18.614;2023-04-24T02:32:25;40.97;;;23.83;;
73585;SDS011;61865;50.232;18.614;2023-04-24T02:34:47;33.45;;;20.33;;
73585;SDS011;61865;50.232;18.614;2023-04-24T02:37:08;29.42;;;20.13;;
73585;SDS011;61865;50.232;18.614;2023-04-24T02:39:30;29.58;;;19.05;;
73585;SDS011;61865;50.232;18.614;2023-04-24T02:41:52;32.50;;;18.58;;
73585;SDS011;61865;50.232;18.614;2023-04-24T02:44:14;36.97;;;21.88;;
73585;SDS011;61865;50.232;18.614;2023-04-24T02:46:38;37.55;;;23.73;;
73585;SDS011;61865;50.232;18.614;2023-04-24T02:49:01;37.83;;;24.38;;
73585;SDS011;61865;50.232;18.614;2023-04-24T02:51:23;37.15;;;22.92;;
73585;SDS011;61865;50.232;18.614;2023-04-24T02:53:45;28.80;;;19.23;;
73585;SDS011;61865;50.232;18.614;2023-04-24T02:56:07;26.98;;;16.02;;
73585;SDS011;61865;50.232;18.614;2023-04-24T02:58:29;26.08;;;17.42;;
73585;SDS011;61865;50.232;18.614;2023-04-24T03:00:52;25.38;;;17.30;;
73585;SDS011;61865;50.232;18.614;2023-04-24T03:03:17;27.75;;;17.33;;
73585;SDS011;61865;50.232;18.614;2023-04-24T03:05:39;30.55;;;17.98;;
73585;SDS011;61865;50.232;18.614;2023-04-24T03:08:01;30.50;;;17.35;;
73585;SDS011;61865;50.232;18.614;2023-04-24T03:10:22;27.20;;;15.88;;
73585;SDS011;61865;50.232;18.614;2023-04-24T03:12:44;25.98;;;15.77;;
73585;SDS011;61865;50.232;18.614;2023-04-24T03:15:07;25.40;;;14.38;;
73585;SDS011;61865;50.232;18.614;2023-04-24T03:17:29;32.60;;;17.55;;
73585;SDS011;61865;50.232;18.614;2023-04-24T03:19:52;30.30;;;16.25;;
73585;SDS011;61865;50.232;18.614;2023-04-24T03:22:15;30.40;;;18.70;;
73585;SDS011;61865;50.232;18.614;2023-04-24T03:24:36;30.75;;;18.13;;
73585;SDS011;61865;50.232;18.614;2023-04-24T03:26:58;33.72;;;18.50;;
73585;SDS011;61865;50.232;18.614;2023-04-24T03:29:20;32.65;;;18.38;;
73585;SDS011;61865;50.232;18.614;2023-04-24T03:31:42;27.15;;;17.73;;
73585;SDS011;61865;50.232;18.614;2023-04-24T03:34:04;29.83;;;17.00;;
73585;SDS011;61865;50.232;18.614;2023-04-24T03:36:27;24.33;;;15.25;;
73585;SDS011;61865;50.232;18.614;2023-04-24T03:38:50;27.45;;;15.15;;
73585;SDS011;61865;50.232;18.614;2023-04-24T03:41:11;26.60;;;14.90;;
73585;SDS011;61865;50.232;18.614;2023-04-24T03:43:33;28.33;;;15.25;;
73585;SDS011;61865;50.232;18.614;2023-04-24T03:45:55;24.38;;;14.02;;
73585;SDS011;61865;50.232;18.614;2023-04-24T03:48:17;20.02;;;12.85;;
73585;SDS011;61865;50.232;18.614;2023-04-24T03:50:39;21.33;;;11.82;;
73585;SDS011;61865;50.232;18.614;2023-04-24T03:53:02;27.60;;;13.02;;
73585;SDS011;61865;50.232;18.614;2023-04-24T03:55:24;25.27;;;13.07;;
73585;SDS011;61865;50.232;18.614;2023-04-24T03:57:46;23.35;;;12.32;;
73585;SDS011;61865;50.232;18.614;2023-04-24T04:00:08;24.73;;;12.52;;
73585;SDS011;61865;50.232;18.614;2023-04-24T04:02:31;24.38;;;13.50;;
73585;SDS011;61865;50.232;18.614;2023-04-24T04:04:53;23.05;;;12.48;;
73585;SDS011;61865;50.232;18.614;2023-04-24T04:07:15;26.98;;;12.55;;
73585;SDS011;61865;50.232;18.614;2023-04-24T04:09:40;23.55;;;13.05;;
73585;SDS011;61865;50.232;18.614;2023-04-24T04:12:02;19.70;;;13.82;;
73585;SDS011;61865;50.232;18.614;2023-04-24T04:14:24;20.85;;;12.02;;
73585;SDS011;61865;50.232;18.614;2023-04-24T04:16:46;17.15;;;10.45;;
73585;SDS011;61865;50.232;18.614;2023-04-24T04:19:08;20.38;;;11.32;;
73585;SDS011;61865;50.232;18.614;2023-04-24T04:21:30;17.70;;;11.38;;
73585;SDS011;61865;50.232;18.614;2023-04-24T04:23:52;23.88;;;10.52;;
73585;SDS011;61865;50.232;18.614;2023-04-24T04:26:15;19.15;;;10.88;;
73585;SDS011;61865;50.232;18.614;2023-04-24T04:28:39;20.15;;;10.23;;
73585;SDS011;61865;50.232;18.614;2023-04-24T04:31:01;17.67;;;10.13;;
73585;SDS011;61865;50.232;18.614;2023-04-24T04:33:22;22.55;;;10.75;;
73585;SDS011;61865;50.232;18.614;2023-04-24T04:35:45;18.20;;;10.55;;
73585;SDS011;61865;50.232;18.614;2023-04-24T04:38:08;21.55;;;10.57;;
73585;SDS011;61865;50.232;18.614;2023-04-24T04:40:30;18.63;;;10.15;;
73585;SDS011;61865;50.232;18.614;2023-04-24T04:42:54;19.58;;;10.63;;
73585;SDS011;61865;50.232;18.614;2023-04-24T04:45:16;19.80;;;10.45;;
73585;SDS011;61865;50.232;18.614;2023-04-24T04:47:38;17.33;;;9.95;;
73585;SDS011;61865;50.232;18.614;2023-04-24T04:50:00;17.13;;;10.38;;
73585;SDS011;61865;50.232;18.614;2023-04-24T04:52:23;21.65;;;10.48;;
73585;SDS011;61865;50.232;18.614;2023-04-24T04:54:46;23.00;;;10.25;;
73585;SDS011;61865;50.232;18.614;2023-04-24T04:57:08;19.05;;;10.77;;
73585;SDS011;61865;50.232;18.614;2023-04-24T04:59:31;20.40;;;10.30;;
73585;SDS011;61865;50.232;18.614;2023-04-24T05:01:53;26.63;;;10.05;;
73585;SDS011;61865;50.232;18.614;2023-04-24T05:04:15;16.88;;;9.85;;
73585;SDS011;61865;50.232;18.614;2023-04-24T05:06:37;19.80;;;9.48;;
73585;SDS011;61865;50.232;18.614;2023-04-24T05:08:59;19.67;;;10.95;;
73585;SDS011;61865;50.232;18.614;2023-04-24T05:11:20;17.02;;;9.80;;
73585;SDS011;61865;50.232;18.614;2023-04-24T05:13:42;21.33;;;10.45;;
73585;SDS011;61865;50.232;18.614;2023-04-24T05:16:06;26.60;;;11.70;;
73585;SDS011;61865;50.232;18.614;2023-04-24T05:18:27;19.00;;;10.55;;
73585;SDS011;61865;50.232;18.614;2023-04-24T05:20:50;26.88;;;11.25;;
73585;SDS011;61865;50.232;18.614;2023-04-24T05:23:12;21.55;;;10.70;;
73585;SDS011;61865;50.232;18.614;2023-04-24T05:25:34;23.35;;;11.57;;
73585;SDS011;61865;50.232;18.614;2023-04-24T05:27:56;18.63;;;11.75;;
73585;SDS011;61865;50.232;18.614;2023-04-24T05:30:18;25.52;;;12.13;;
73585;SDS011;61865;50.232;18.614;2023-04-24T05:32:41;24.48;;;11.63;;
73585;SDS011;61865;50.232;18.614;2023-04-24T05:35:03;27.05;;;12.68;;
73585;SDS011;61865;50.232;18.614;2023-04-24T05:37:25;25.15;;;11.93;;
73585;SDS011;61865;50.232;18.614;2023-04-24T05:39:47;29.85;;;11.05;;
73585;SDS011;61865;50.232;18.614;2023-04-24T05:42:09;41.00;;;15.30;;
73585;SDS011;61865;50.232;18.614;2023-04-24T05:44:31;35.80;;;11.68;;
73585;SDS011;61865;50.232;18.614;2023-04-24T05:46:53;31.88;;;11.77;;
73585;SDS011;61865;50.232;18.614;2023-04-24T05:49:17;35.50;;;12.38;;
73585;SDS011;61865;50.232;18.614;2023-04-24T05:51:39;40.85;;;14.38;;
73585;SDS011;61865;50.232;18.614;2023-04-24T05:54:01;39.42;;;15.35;;
73585;SDS011;61865;50.232;18.614;2023-04-24T05:56:23;32.28;;;12.52;;
73585;SDS011;61865;50.232;18.614;2023-04-24T05:58:45;43.05;;;13.00;;
73585;SDS011;61865;50.232;18.614;2023-04-24T06:01:07;32.63;;;11.85;;
73585;SDS011;61865;50.232;18.614;2023-04-24T06:03:29;31.30;;;8.82;;
73585;SDS011;61865;50.232;18.614;2023-04-24T06:05:53;13.27;;;6.55;;
73585;SDS011;61865;50.232;18.614;2023-04-24T06:08:15;13.68;;;6.88;;
73585;SDS011;61865;50.232;18.614;2023-04-24T06:10:36;22.63;;;6.05;;
73585;SDS011;61865;50.232;18.614;2023-04-24T06:12:58;15.02;;;6.53;;
73585;SDS011;61865;50.232;18.614;2023-04-24T06:15:21;17.92;;;6.93;;
73585;SDS011;61865;50.232;18.614;2023-04-24T06:17:43;19.52;;;6.78;;
73585;SDS011;61865;50.232;18.614;2023-04-24T06:20:05;13.70;;;6.15;;
73585;SDS011;61865;50.232;18.614;2023-04-24T06:22:29;15.55;;;6.38;;
73585;SDS011;61865;50.232;18.614;2023-04-24T06:24:51;16.13;;;4.97;;
73585;SDS011;61865;50.232;18.614;2023-04-24T06:27:13;12.45;;;4.35;;
73585;SDS011;61865;50.232;18.614;2023-04-24T06:29:35;7.93;;;4.43;;
73585;SDS011;61865;50.232;18.614;2023-04-24T06:31:58;8.48;;;4.35;;
73585;SDS011;61865;50.232;18.614;2023-04-24T06:34:19;13.43;;;4.82;;
73585;SDS011;61865;50.232;18.614;2023-04-24T06:36:41;20.70;;;4.95;;
73585;SDS011;61865;50.232;18.614;2023-04-24T06:39:04;10.82;;;5.95;;
73585;SDS011;61865;50.232;18.614;2023-04-24T06:41:27;12.57;;;4.65;;
73585;SDS011;61865;50.232;18.614;2023-04-24T06:43:49;7.90;;;4.40;;
73585;SDS011;61865;50.232;18.614;2023-04-24T06:46:11;7.18;;;4.10;;
73585;SDS011;61865;50.232;18.614;2023-04-24T06:48:33;9.60;;;4.43;;
73585;SDS011;61865;50.232;18.614;2023-04-24T06:50:55;8.93;;;4.25;;
73585;SDS011;61865;50.232;18.614;2023-04-24T06:53:16;8.68;;;4.20;;
73585;SDS011;61865;50.232;18.614;2023-04-24T06:55:40;17.05;;;4.18;;
73585;SDS011;61865;50.232;18.614;2023-04-24T06:58:03;7.28;;;4.55;;
73585;SDS011;61865;50.232;18.614;2023-04-24T07:00:26;9.68;;;4.50;;
73585;SDS011;61865;50.232;18.614;2023-04-24T07:02:47;12.77;;;4.47;;
73585;SDS011;61865;50.232;18.614;2023-04-24T07:05:09;15.93;;;4.50;;
73585;SDS011;61865;50.232;18.614;2023-04-24T07:07:32;9.02;;;4.32;;
73585;SDS011;61865;50.232;18.614;2023-04-24T07:09:54;11.80;;;4.53;;
73585;SDS011;61865;50.232;18.614;2023-04-24T07:12:17;14.90;;;4.68;;
73585;SDS011;61865;50.232;18.614;2023-04-24T07:14:40;10.60;;;4.28;;
73585;SDS011;61865;50.232;18.614;2023-04-24T07:17:02;13.15;;;4.28;;
73585;SDS011;61865;50.232;18.614;2023-04-24T07:19:24;9.55;;;3.95;;
73585;SDS011;61865;50.232;18.614;2023-04-24T07:21:46;8.05;;;4.00;;
73585;SDS011;61865;50.232;18.614;2023-04-24T07:24:08;10.35;;;4.70;;
73585;SDS011;61865;50.232;18.614;2023-04-24T07:26:31;8.48;;;3.90;;
73585;SDS011;61865;50.232;18.614;2023-04-24T07:28:54;7.82;;;4.15;;
73585;SDS011;61865;50.232;18.614;2023-04-24T07:31:16;10.98;;;4.35;;
73585;SDS011;61865;50.232;18.614;2023-04-24T07:33:38;8.90;;;3.67;;
73585;SDS011;61865;50.232;18.614;2023-04-24T07:36:00;9.93;;;4.30;;
73585;SDS011;61865;50.232;18.614;2023-04-24T07:38:22;7.13;;;3.83;;
73585;SDS011;61865;50.232;18.614;2023-04-24T07:40:45;8.45;;;4.55;;
73585;SDS011;61865;50.232;18.614;2023-04-24T07:43:07;8.82;;;3.88;;
73585;SDS011;61865;50.232;18.614;2023-04-24T07:45:30;8.43;;;4.35;;
73585;SDS011;61865;50.232;18.614;2023-04-24T07:47:56;8.18;;;3.75;;
73585;SDS011;61865;50.232;18.614;2023-04-24T07:50:18;7.57;;;3.78;;
73585;SDS011;61865;50.232;18.614;2023-04-24T07:52:39;21.63;;;4.13;;
73585;SDS011;61865;50.232;18.614;2023-04-24T07:55:01;7.60;;;3.92;;
73585;SDS011;61865;50.232;18.614;2023-04-24T07:57:24;8.05;;;3.70;;
73585;SDS011;61865;50.232;18.614;2023-04-24T07:59:45;7.75;;;4.07;;
73585;SDS011;61865;50.232;18.614;2023-04-24T08:02:09;9.27;;;3.95;;
73585;SDS011;61865;50.232;18.614;2023-04-24T08:04:31;6.63;;;3.80;;
73585;SDS011;61865;50.232;18.614;2023-04-24T08:06:53;8.90;;;3.72;;
73585;SDS011;61865;50.232;18.614;2023-04-24T08:09:15;7.68;;;3.60;;
73585;SDS011;61865;50.232;18.614;2023-04-24T08:11:37;6.03;;;3.25;;
73585;SDS011;61865;50.232;18.614;2023-04-24T08:13:59;7.72;;;3.90;;
73585;SDS011;61865;50.232;18.614;2023-04-24T08:16:20;6.65;;;3.13;;
73585;SDS011;61865;50.232;18.614;2023-04-24T08:18:45;10.75;;;3.20;;
73585;SDS011;61865;50.232;18.614;2023-04-24T08:21:07;10.18;;;3.28;;
73585;SDS011;61865;50.232;18.614;2023-04-24T08:23:28;11.75;;;3.53;;
73585;SDS011;61865;50.232;18.614;2023-04-24T08:25:50;7.03;;;3.30;;
73585;SDS011;61865;50.232;18.614;2023-04-24T08:28:12;6.95;;;3.70;;
73585;SDS011;61865;50.232;18.614;2023-04-24T08:30:40;7.13;;;3.75;;
73585;SDS011;61865;50.232;18.614;2023-04-24T08:33:01;7.32;;;4.38;;
73585;SDS011;61865;50.232;18.614;2023-04-24T08:35:25;5.72;;;3.30;;
73585;SDS011;61865;50.232;18.614;2023-04-24T08:37:46;7.90;;;3.58;;
73585;SDS011;61865;50.232;18.614;2023-04-24T08:40:11;12.60;;;3.60;;
73585;SDS011;61865;50.232;18.614;2023-04-24T08:42:34;9.00;;;3.28;;
73585;SDS011;61865;50.232;18.614;2023-04-24T08:44:58;7.57;;;3.67;;
73585;SDS011;61865;50.232;18.614;2023-04-24T08:47:20;10.85;;;3.45;;
73585;SDS011;61865;50.232;18.614;2023-04-24T08:49:44;6.90;;;3.08;;
73585;SDS011;61865;50.232;18.614;2023-04-24T08:52:10;8.20;;;3.40;;
73585;SDS011;61865;50.232;18.614;2023-04-24T08:54:33;7.05;;;3.33;;
73585;SDS011;61865;50.232;18.614;2023-04-24T08:56:57;9.00;;;3.25;;
73585;SDS011;61865;50.232;18.614;2023-04-24T08:59:21;6.45;;;3.40;;
73585;SDS011;61865;50.232;18.614;2023-04-24T09:01:43;6.25;;;3.25;;
73585;SDS011;61865;50.232;18.614;2023-04-24T09:04:08;8.13;;;3.28;;
73585;SDS011;61865;50.232;18.614;2023-04-24T09:06:32;15.75;;;3.28;;
73585;SDS011;61865;50.232;18.614;2023-04-24T09:08:56;6.88;;;3.38;;
73585;SDS011;61865;50.232;18.614;2023-04-24T09:11:20;6.95;;;2.97;;
73585;SDS011;61865;50.232;18.614;2023-04-24T09:13:44;6.60;;;3.10;;
73585;SDS011;61865;50.232;18.614;2023-04-24T09:16:06;5.75;;;2.88;;
73585;SDS011;61865;50.232;18.614;2023-04-24T09:18:28;6.30;;;3.10;;
73585;SDS011;61865;50.232;18.614;2023-04-24T09:21:00;6.07;;;3.17;;
73585;SDS011;61865;50.232;18.614;2023-04-24T09:23:22;7.22;;;3.75;;
73585;SDS011;61865;50.232;18.614;2023-04-24T09:25:48;7.88;;;3.00;;
73585;SDS011;61865;50.232;18.614;2023-04-24T09:28:15;8.35;;;3.00;;
73585;SDS011;61865;50.232;18.614;2023-04-24T09:30:37;6.03;;;3.13;;
73585;SDS011;61865;50.232;18.614;2023-04-24T09:33:12;6.30;;;3.20;;
73585;SDS011;61865;50.232;18.614;2023-04-24T09:35:35;6.82;;;3.17;;
73585;SDS011;61865;50.232;18.614;2023-04-24T09:37:57;10.07;;;2.88;;
73585;SDS011;61865;50.232;18.614;2023-04-24T09:40:19;5.53;;;3.25;;
73585;SDS011;61865;50.232;18.614;2023-04-24T09:42:45;4.50;;;2.80;;
73585;SDS011;61865;50.232;18.614;2023-04-24T09:45:11;4.85;;;2.95;;
73585;SDS011;61865;50.232;18.614;2023-04-24T09:47:35;5.57;;;2.80;;
73585;SDS011;61865;50.232;18.614;2023-04-24T09:49:57;8.57;;;3.13;;
73585;SDS011;61865;50.232;18.614;2023-04-24T09:52:19;7.47;;;3.00;;
73585;SDS011;61865;50.232;18.614;2023-04-24T09:54:41;6.65;;;3.47;;
73585;SDS011;61865;50.232;18.614;2023-04-24T09:57:03;9.63;;;3.17;;
73585;SDS011;61865;50.232;18.614;2023-04-24T09:59:27;5.65;;;2.95;;
73585;SDS011;61865;50.232;18.614;2023-04-24T10:01:49;7.55;;;3.17;;
73585;SDS011;61865;50.232;18.614;2023-04-24T10:04:15;7.30;;;3.45;;
73585;SDS011;61865;50.232;18.614;2023-04-24T10:06:38;8.05;;;3.17;;
73585;SDS011;61865;50.232;18.614;2023-04-24T10:09:04;16.10;;;3.75;;
73585;SDS011;61865;50.232;18.614;2023-04-24T10:11:26;8.40;;;3.42;;
73585;SDS011;61865;50.232;18.614;2023-04-24T10:13:49;7.03;;;3.33;;
73585;SDS011;61865;50.232;18.614;2023-04-24T10:16:12;10.07;;;3.97;;
73585;SDS011;61865;50.232;18.614;2023-04-24T10:18:35;9.13;;;3.80;;
73585;SDS011;61865;50.232;18.614;2023-04-24T10:20:56;12.98;;;3.90;;
73585;SDS011;61865;50.232;18.614;2023-04-24T10:23:20;10.18;;;4.40;;
73585;SDS011;61865;50.232;18.614;2023-04-24T10:25:43;10.73;;;4.00;;
73585;SDS011;61865;50.232;18.614;2023-04-24T10:28:06;8.90;;;4.53;;
73585;SDS011;61865;50.232;18.614;2023-04-24T10:30:28;12.10;;;3.53;;
73585;SDS011;61865;50.232;18.614;2023-04-24T10:32:56;8.85;;;3.85;;
73585;SDS011;61865;50.232;18.614;2023-04-24T10:35:18;9.30;;;4.68;;
73585;SDS011;61865;50.232;18.614;2023-04-24T10:37:43;6.05;;;3.60;;
73585;SDS011;61865;50.232;18.614;2023-04-24T10:40:10;15.77;;;3.90;;
73585;SDS011;61865;50.232;18.614;2023-04-24T10:42:33;14.90;;;4.95;;
73585;SDS011;61865;50.232;18.614;2023-04-24T10:44:54;9.15;;;4.47;;
73585;SDS011;61865;50.232;18.614;2023-04-24T10:47:18;15.45;;;4.07;;
73585;SDS011;61865;50.232;18.614;2023-04-24T10:49:41;9.23;;;3.95;;
73585;SDS011;61865;50.232;18.614;2023-04-24T10:52:03;6.13;;;3.45;;
73585;SDS011;61865;50.232;18.614;2023-04-24T10:54:27;8.93;;;4.22;;
73585;SDS011;61865;50.232;18.614;2023-04-24T10:56:50;12.73;;;4.22;;
73585;SDS011;61865;50.232;18.614;2023-04-24T10:59:13;7.80;;;4.35;;
73585;SDS011;61865;50.232;18.614;2023-04-24T11:01:45;10.98;;;3.80;;
73585;SDS011;61865;50.232;18.614;2023-04-24T11:04:21;8.55;;;3.72;;
73585;SDS011;61865;50.232;18.614;2023-04-24T11:06:52;8.32;;;4.10;;
73585;SDS011;61865;50.232;18.614;2023-04-24T11:09:14;6.63;;;3.40;;
73585;SDS011;61865;50.232;18.614;2023-04-24T11:11:37;11.65;;;4.10;;
73585;SDS011;61865;50.232;18.614;2023-04-24T11:14:07;8.05;;;4.03;;
73585;SDS011;61865;50.232;18.614;2023-04-24T11:16:30;10.35;;;4.22;;
73585;SDS011;61865;50.232;18.614;2023-04-24T11:19:00;7.10;;;3.63;;
73585;SDS011;61865;50.232;18.614;2023-04-24T11:21:22;6.68;;;3.63;;
73585;SDS011;61865;50.232;18.614;2023-04-24T11:23:46;15.18;;;3.42;;
73585;SDS011;61865;50.232;18.614;2023-04-24T11:26:11;5.55;;;3.40;;
73585;SDS011;61865;50.232;18.614;2023-04-24T11:28:34;6.57;;;3.13;;
73585;SDS011;61865;50.232;18.614;2023-04-24T11:30:56;15.05;;;3.90;;
73585;SDS011;61865;50.232;18.614;2023-04-24T11:33:19;10.60;;;3.60;;
73585;SDS011;61865;50.232;18.614;2023-04-24T11:35:41;7.35;;;2.97;;
73585;SDS011;61865;50.232;18.614;2023-04-24T11:38:04;6.15;;;3.40;;
73585;SDS011;61865;50.232;18.614;2023-04-24T11:40:28;8.18;;;3.50;;
73585;SDS011;61865;50.232;18.614;2023-04-24T11:42:50;12.20;;;3.70;;
73585;SDS011;61865;50.232;18.614;2023-04-24T11:45:15;7.90;;;3.35;;
73585;SDS011;61865;50.232;18.614;2023-04-24T11:47:39;8.95;;;3.60;;
73585;SDS011;61865;50.232;18.614;2023-04-24T11:50:01;20.40;;;3.90;;
73585;SDS011;61865;50.232;18.614;2023-04-24T11:52:24;8.20;;;3.22;;
73585;SDS011;61865;50.232;18.614;2023-04-24T11:54:47;8.75;;;3.42;;
73585;SDS011;61865;50.232;18.614;2023-04-24T11:57:11;10.02;;;3.53;;
73585;SDS011;61865;50.232;18.614;2023-04-24T11:59:36;7.53;;;3.50;;
73585;SDS011;61865;50.232;18.614;2023-04-24T12:01:58;10.38;;;3.83;;
73585;SDS011;61865;50.232;18.614;2023-04-24T12:04:20;8.52;;;4.45;;
73585;SDS011;61865;50.232;18.614;2023-04-24T12:09:22;8.82;;;3.78;;
73585;SDS011;61865;50.232;18.614;2023-04-24T12:11:52;15.68;;;4.22;;
73585;SDS011;61865;50.232;18.614;2023-04-24T12:14:17;8.73;;;3.80;;
73585;SDS011;61865;50.232;18.614;2023-04-24T12:16:38;10.85;;;4.28;;
73585;SDS011;61865;50.232;18.614;2023-04-24T12:19:01;12.18;;;3.63;;
73585;SDS011;61865;50.232;18.614;2023-04-24T12:21:24;19.50;;;3.67;;
73585;SDS011;61865;50.232;18.614;2023-04-24T12:23:50;10.65;;;3.42;;
73585;SDS011;61865;50.232;18.614;2023-04-24T12:26:18;6.57;;;3.28;;
73585;SDS011;61865;50.232;18.614;2023-04-24T12:28:42;13.15;;;3.85;;
73585;SDS011;61865;50.232;18.614;2023-04-24T12:31:05;7.35;;;3.78;;
73585;SDS011;61865;50.232;18.614;2023-04-24T12:33:27;7.53;;;3.42;;
73585;SDS011;61865;50.232;18.614;2023-04-24T12:35:54;12.93;;;3.85;;
73585;SDS011;61865;50.232;18.614;2023-04-24T12:38:16;16.73;;;3.97;;
73585;SDS011;61865;50.232;18.614;2023-04-24T12:40:43;5.43;;;3.38;;
73585;SDS011;61865;50.232;18.614;2023-04-24T12:43:13;10.95;;;3.60;;
73585;SDS011;61865;50.232;18.614;2023-04-24T12:45:35;8.43;;;3.40;;
73585;SDS011;61865;50.232;18.614;2023-04-24T12:47:58;7.10;;;3.40;;
73585;SDS011;61865;50.232;18.614;2023-04-24T12:50:20;12.93;;;3.70;;
73585;SDS011;61865;50.232;18.614;2023-04-24T12:52:42;5.95;;;3.22;;
73585;SDS011;61865;50.232;18.614;2023-04-24T12:55:05;8.45;;;3.28;;
73585;SDS011;61865;50.232;18.614;2023-04-24T12:57:28;10.73;;;3.47;;
73585;SDS011;61865;50.232;18.614;2023-04-24T12:59:54;5.82;;;3.47;;
73585;SDS011;61865;50.232;18.614;2023-04-24T13:02:16;5.28;;;3.33;;
73585;SDS011;61865;50.232;18.614;2023-04-24T13:04:39;8.77;;;3.47;;
73585;SDS011;61865;50.232;18.614;2023-04-24T13:07:01;12.07;;;3.42;;
73585;SDS011;61865;50.232;18.614;2023-04-24T13:09:23;7.30;;;3.00;;
73585;SDS011;61865;50.232;18.614;2023-04-24T13:11:45;10.02;;;3.08;;
73585;SDS011;61865;50.232;18.614;2023-04-24T13:14:07;7.32;;;3.65;;
73585;SDS011;61865;50.232;18.614;2023-04-24T13:16:28;11.00;;;3.47;;
73585;SDS011;61865;50.232;18.614;2023-04-24T13:18:50;9.68;;;3.45;;
73585;SDS011;61865;50.232;18.614;2023-04-24T13:21:14;8.27;;;3.65;;
73585;SDS011;61865;50.232;18.614;2023-04-24T13:23:35;7.25;;;3.92;;
73585;SDS011;61865;50.232;18.614;2023-04-24T13:25:57;7.88;;;3.65;;
73585;SDS011;61865;50.232;18.614;2023-04-24T13:28:20;11.32;;;3.72;;
73585;SDS011;61865;50.232;18.614;2023-04-24T13:30:41;7.00;;;3.58;;
73585;SDS011;61865;50.232;18.614;2023-04-24T13:33:03;8.73;;;3.67;;
73585;SDS011;61865;50.232;18.614;2023-04-24T13:35:25;6.55;;;3.90;;
73585;SDS011;61865;50.232;18.614;2023-04-24T13:37:48;7.50;;;3.33;;
73585;SDS011;61865;50.232;18.614;2023-04-24T13:40:10;13.57;;;3.90;;
73585;SDS011;61865;50.232;18.614;2023-04-24T13:42:32;8.70;;;3.08;;
73585;SDS011;61865;50.232;18.614;2023-04-24T13:44:54;10.20;;;4.10;;
73585;SDS011;61865;50.232;18.614;2023-04-24T13:47:17;10.43;;;4.22;;
73585;SDS011;61865;50.232;18.614;2023-04-24T13:49:39;8.68;;;3.67;;
73585;SDS011;61865;50.232;18.614;2023-04-24T13:52:01;6.30;;;3.88;;
73585;SDS011;61865;50.232;18.614;2023-04-24T13:54:25;9.15;;;4.20;;
73585;SDS011;61865;50.232;18.614;2023-04-24T13:56:48;6.35;;;3.60;;